sensor_id;sensor_type;location;lat;lon;timestamp;P1;durP1;ratioP1;P2;durP2;ratioP2
21251;SDS011;10784;50.578;17.878;2022-12-29T00:00:35;4.47;;;2.47;;
21251;SDS011;10784;50.578;17.878;2022-12-29T00:03:26;5.72;;;2.50;;
21251;SDS011;10784;50.578;17.878;2022-12-29T00:05:59;6.30;;;2.28;;
21251;SDS011;10784;50.578;17.878;2022-12-29T00:08:33;5.53;;;3.35;;
21251;SDS011;10784;50.578;17.878;2022-12-29T00:11:15;3.78;;;2.35;;
21251;SDS011;10784;50.578;17.878;2022-12-29T00:13:48;4.85;;;2.60;;
21251;SDS011;10784;50.578;17.878;2022-12-29T00:16:43;3.30;;;1.95;;
21251;SDS011;10784;50.578;17.878;2022-12-29T00:19:16;3.97;;;1.30;;
21251;SDS011;10784;50.578;17.878;2022-12-29T00:22:11;4.20;;;2.40;;
21251;SDS011;10784;50.578;17.878;2022-12-29T00:25:04;4.55;;;2.28;;
21251;SDS011;10784;50.578;17.878;2022-12-29T00:27:56;2.53;;;1.58;;
21251;SDS011;10784;50.578;17.878;2022-12-29T00:30:49;3.10;;;2.10;;
21251;SDS011;10784;50.578;17.878;2022-12-29T00:33:40;3.97;;;2.75;;
21251;SDS011;10784;50.578;17.878;2022-12-29T00:36:38;3.72;;;2.33;;
21251;SDS011;10784;50.578;17.878;2022-12-29T00:39:16;4.80;;;2.30;;
21251;SDS011;10784;50.578;17.878;2022-12-29T00:42:08;5.03;;;2.05;;
21251;SDS011;10784;50.578;17.878;2022-12-29T00:45:10;4.40;;;1.75;;
21251;SDS011;10784;50.578;17.878;2022-12-29T00:47:43;5.25;;;3.08;;
21251;SDS011;10784;50.578;17.878;2022-12-29T00:50:16;5.22;;;2.50;;
21251;SDS011;10784;50.578;17.878;2022-12-29T00:52:49;3.10;;;1.90;;
21251;SDS011;10784;50.578;17.878;2022-12-29T00:55:22;3.45;;;1.95;;
21251;SDS011;10784;50.578;17.878;2022-12-29T00:57:54;4.65;;;2.15;;
21251;SDS011;10784;50.578;17.878;2022-12-29T01:00:27;4.65;;;1.95;;
21251;SDS011;10784;50.578;17.878;2022-12-29T01:03:00;2.42;;;2.15;;
21251;SDS011;10784;50.578;17.878;2022-12-29T01:05:35;3.20;;;2.10;;
21251;SDS011;10784;50.578;17.878;2022-12-29T01:08:10;6.05;;;2.63;;
21251;SDS011;10784;50.578;17.878;2022-12-29T01:10:43;6.45;;;2.45;;
21251;SDS011;10784;50.578;17.878;2022-12-29T01:13:16;8.57;;;2.75;;
21251;SDS011;10784;50.578;17.878;2022-12-29T01:15:49;5.43;;;2.58;;
21251;SDS011;10784;50.578;17.878;2022-12-29T01:18:23;4.55;;;2.60;;
21251;SDS011;10784;50.578;17.878;2022-12-29T01:21:00;7.10;;;2.72;;
21251;SDS011;10784;50.578;17.878;2022-12-29T01:23:33;3.47;;;2.95;;
21251;SDS011;10784;50.578;17.878;2022-12-29T01:26:13;6.63;;;2.13;;
21251;SDS011;10784;50.578;17.878;2022-12-29T01:28:46;6.68;;;2.97;;
21251;SDS011;10784;50.578;17.878;2022-12-29T01:31:19;9.52;;;2.80;;
21251;SDS011;10784;50.578;17.878;2022-12-29T01:33:51;7.05;;;2.92;;
21251;SDS011;10784;50.578;17.878;2022-12-29T01:36:24;3.40;;;2.33;;
21251;SDS011;10784;50.578;17.878;2022-12-29T01:38:57;3.72;;;2.42;;
21251;SDS011;10784;50.578;17.878;2022-12-29T01:41:30;7.88;;;2.60;;
21251;SDS011;10784;50.578;17.878;2022-12-29T01:46:56;4.93;;;2.28;;
21251;SDS011;10784;50.578;17.878;2022-12-29T01:49:28;2.97;;;2.17;;
21251;SDS011;10784;50.578;17.878;2022-12-29T01:52:05;3.47;;;2.00;;
21251;SDS011;10784;50.578;17.878;2022-12-29T01:54:43;8.02;;;2.95;;
21251;SDS011;10784;50.578;17.878;2022-12-29T01:57:17;5.18;;;2.78;;
21251;SDS011;10784;50.578;17.878;2022-12-29T01:59:53;4.88;;;2.33;;
21251;SDS011;10784;50.578;17.878;2022-12-29T02:02:28;4.35;;;2.58;;
21251;SDS011;10784;50.578;17.878;2022-12-29T02:05:05;4.80;;;2.60;;
21251;SDS011;10784;50.578;17.878;2022-12-29T02:07:39;4.47;;;2.55;;
21251;SDS011;10784;50.578;17.878;2022-12-29T02:10:14;2.78;;;2.47;;
21251;SDS011;10784;50.578;17.878;2022-12-29T02:12:48;2.95;;;1.92;;
21251;SDS011;10784;50.578;17.878;2022-12-29T02:15:22;7.50;;;2.67;;
21251;SDS011;10784;50.578;17.878;2022-12-29T02:24:04;5.93;;;2.28;;
21251;SDS011;10784;50.578;17.878;2022-12-29T02:26:39;4.10;;;2.03;;
21251;SDS011;10784;50.578;17.878;2022-12-29T02:37:23;4.40;;;2.22;;
21251;SDS011;10784;50.578;17.878;2022-12-29T02:42:36;7.15;;;3.13;;
21251;SDS011;10784;50.578;17.878;2022-12-29T02:45:20;3.78;;;2.53;;
21251;SDS011;10784;50.578;17.878;2022-12-29T02:48:04;5.80;;;2.53;;
21251;SDS011;10784;50.578;17.878;2022-12-29T02:50:43;6.72;;;2.70;;
21251;SDS011;10784;50.578;17.878;2022-12-29T02:53:21;3.55;;;2.03;;
21251;SDS011;10784;50.578;17.878;2022-12-29T02:56:14;5.22;;;2.00;;
21251;SDS011;10784;50.578;17.878;2022-12-29T02:58:50;4.93;;;3.00;;
21251;SDS011;10784;50.578;17.878;2022-12-29T03:01:45;2.70;;;1.80;;
21251;SDS011;10784;50.578;17.878;2022-12-29T03:04:46;12.02;;;2.42;;
21251;SDS011;10784;50.578;17.878;2022-12-29T03:07:23;4.93;;;2.63;;
21251;SDS011;10784;50.578;17.878;2022-12-29T03:12:39;2.97;;;2.00;;
21251;SDS011;10784;50.578;17.878;2022-12-29T03:15:34;3.58;;;2.38;;
21251;SDS011;10784;50.578;17.878;2022-12-29T03:18:32;7.30;;;2.72;;
21251;SDS011;10784;50.578;17.878;2022-12-29T03:21:13;4.57;;;2.53;;
21251;SDS011;10784;50.578;17.878;2022-12-29T03:23:49;3.80;;;1.92;;
21251;SDS011;10784;50.578;17.878;2022-12-29T03:26:22;5.65;;;3.42;;
21251;SDS011;10784;50.578;17.878;2022-12-29T03:28:55;5.32;;;2.45;;
21251;SDS011;10784;50.578;17.878;2022-12-29T03:31:33;8.02;;;2.97;;
21251;SDS011;10784;50.578;17.878;2022-12-29T03:34:06;4.97;;;2.67;;
21251;SDS011;10784;50.578;17.878;2022-12-29T03:36:42;3.80;;;2.60;;
21251;SDS011;10784;50.578;17.878;2022-12-29T03:39:17;3.58;;;2.08;;
21251;SDS011;10784;50.578;17.878;2022-12-29T03:41:52;5.85;;;3.47;;
21251;SDS011;10784;50.578;17.878;2022-12-29T03:44:37;3.58;;;2.35;;
21251;SDS011;10784;50.578;17.878;2022-12-29T03:47:10;6.53;;;2.47;;
21251;SDS011;10784;50.578;17.878;2022-12-29T03:49:44;4.90;;;2.97;;
21251;SDS011;10784;50.578;17.878;2022-12-29T03:52:16;4.78;;;2.40;;
21251;SDS011;10784;50.578;17.878;2022-12-29T03:54:51;6.80;;;3.17;;
21251;SDS011;10784;50.578;17.878;2022-12-29T03:57:24;5.05;;;2.78;;
21251;SDS011;10784;50.578;17.878;2022-12-29T04:00:05;5.05;;;2.38;;
21251;SDS011;10784;50.578;17.878;2022-12-29T04:02:46;8.35;;;2.40;;
21251;SDS011;10784;50.578;17.878;2022-12-29T04:05:25;6.28;;;2.80;;
21251;SDS011;10784;50.578;17.878;2022-12-29T04:07:59;4.13;;;2.50;;
21251;SDS011;10784;50.578;17.878;2022-12-29T04:10:32;6.60;;;2.88;;
21251;SDS011;10784;50.578;17.878;2022-12-29T04:13:08;4.10;;;2.35;;
21251;SDS011;10784;50.578;17.878;2022-12-29T04:15:42;5.28;;;2.45;;
21251;SDS011;10784;50.578;17.878;2022-12-29T04:18:15;4.53;;;2.70;;
21251;SDS011;10784;50.578;17.878;2022-12-29T04:20:49;10.20;;;2.70;;
21251;SDS011;10784;50.578;17.878;2022-12-29T04:23:38;7.25;;;3.10;;
21251;SDS011;10784;50.578;17.878;2022-12-29T04:26:13;6.22;;;2.53;;
21251;SDS011;10784;50.578;17.878;2022-12-29T04:28:57;3.60;;;2.30;;
21251;SDS011;10784;50.578;17.878;2022-12-29T04:31:45;5.70;;;2.45;;
21251;SDS011;10784;50.578;17.878;2022-12-29T04:34:18;5.38;;;2.80;;
21251;SDS011;10784;50.578;17.878;2022-12-29T04:36:52;8.32;;;2.55;;
21251;SDS011;10784;50.578;17.878;2022-12-29T04:39:25;4.22;;;2.70;;
21251;SDS011;10784;50.578;17.878;2022-12-29T04:41:58;7.07;;;2.90;;
21251;SDS011;10784;50.578;17.878;2022-12-29T04:44:31;10.32;;;2.83;;
21251;SDS011;10784;50.578;17.878;2022-12-29T04:47:16;5.97;;;2.53;;
21251;SDS011;10784;50.578;17.878;2022-12-29T04:50:03;4.53;;;2.45;;
21251;SDS011;10784;50.578;17.878;2022-12-29T04:52:46;5.13;;;2.15;;
21251;SDS011;10784;50.578;17.878;2022-12-29T04:55:18;6.40;;;2.78;;
21251;SDS011;10784;50.578;17.878;2022-12-29T04:57:51;7.07;;;2.45;;
21251;SDS011;10784;50.578;17.878;2022-12-29T05:00:24;2.45;;;2.25;;
21251;SDS011;10784;50.578;17.878;2022-12-29T05:02:57;6.88;;;3.17;;
21251;SDS011;10784;50.578;17.878;2022-12-29T05:05:30;3.50;;;2.63;;
21251;SDS011;10784;50.578;17.878;2022-12-29T05:08:04;5.80;;;2.70;;
21251;SDS011;10784;50.578;17.878;2022-12-29T05:10:37;4.88;;;3.20;;
21251;SDS011;10784;50.578;17.878;2022-12-29T05:13:16;5.72;;;2.40;;
21251;SDS011;10784;50.578;17.878;2022-12-29T05:15:51;3.30;;;1.92;;
21251;SDS011;10784;50.578;17.878;2022-12-29T05:18:26;6.50;;;2.78;;
21251;SDS011;10784;50.578;17.878;2022-12-29T05:20:59;2.65;;;2.22;;
21251;SDS011;10784;50.578;17.878;2022-12-29T05:23:33;3.78;;;2.20;;
21251;SDS011;10784;50.578;17.878;2022-12-29T05:26:10;6.82;;;3.03;;
21251;SDS011;10784;50.578;17.878;2022-12-29T05:29:09;3.15;;;1.98;;
21251;SDS011;10784;50.578;17.878;2022-12-29T05:31:41;4.57;;;2.40;;
21251;SDS011;10784;50.578;17.878;2022-12-29T05:34:14;4.03;;;1.80;;
21251;SDS011;10784;50.578;17.878;2022-12-29T05:36:47;4.18;;;2.38;;
21251;SDS011;10784;50.578;17.878;2022-12-29T05:39:20;6.80;;;2.45;;
21251;SDS011;10784;50.578;17.878;2022-12-29T05:41:59;5.00;;;2.63;;
21251;SDS011;10784;50.578;17.878;2022-12-29T05:44:42;5.35;;;2.63;;
21251;SDS011;10784;50.578;17.878;2022-12-29T05:47:21;2.90;;;2.22;;
21251;SDS011;10784;50.578;17.878;2022-12-29T05:50:26;5.20;;;3.00;;
21251;SDS011;10784;50.578;17.878;2022-12-29T05:53:25;8.82;;;3.42;;
21251;SDS011;10784;50.578;17.878;2022-12-29T05:55:58;5.90;;;2.53;;
21251;SDS011;10784;50.578;17.878;2022-12-29T05:58:30;5.00;;;2.20;;
21251;SDS011;10784;50.578;17.878;2022-12-29T06:01:04;3.45;;;2.78;;
21251;SDS011;10784;50.578;17.878;2022-12-29T06:03:38;5.60;;;2.20;;
21251;SDS011;10784;50.578;17.878;2022-12-29T06:06:19;9.07;;;3.53;;
21251;SDS011;10784;50.578;17.878;2022-12-29T06:08:51;7.78;;;3.17;;
21251;SDS011;10784;50.578;17.878;2022-12-29T06:11:25;11.73;;;2.60;;
21251;SDS011;10784;50.578;17.878;2022-12-29T06:14:01;4.25;;;2.15;;
21251;SDS011;10784;50.578;17.878;2022-12-29T06:16:34;5.50;;;3.30;;
21251;SDS011;10784;50.578;17.878;2022-12-29T06:19:09;7.45;;;3.30;;
21251;SDS011;10784;50.578;17.878;2022-12-29T06:21:42;4.38;;;2.60;;
21251;SDS011;10784;50.578;17.878;2022-12-29T06:24:15;7.43;;;2.90;;
21251;SDS011;10784;50.578;17.878;2022-12-29T06:26:48;3.22;;;2.03;;
21251;SDS011;10784;50.578;17.878;2022-12-29T06:29:21;4.22;;;2.53;;
21251;SDS011;10784;50.578;17.878;2022-12-29T06:31:54;4.30;;;2.15;;
21251;SDS011;10784;50.578;17.878;2022-12-29T06:34:31;2.67;;;2.47;;
21251;SDS011;10784;50.578;17.878;2022-12-29T06:37:05;5.20;;;2.03;;
21251;SDS011;10784;50.578;17.878;2022-12-29T06:39:39;8.63;;;4.65;;
21251;SDS011;10784;50.578;17.878;2022-12-29T06:42:16;11.63;;;5.30;;
21251;SDS011;10784;50.578;17.878;2022-12-29T06:44:55;8.32;;;5.05;;
21251;SDS011;10784;50.578;17.878;2022-12-29T06:47:31;11.18;;;5.65;;
21251;SDS011;10784;50.578;17.878;2022-12-29T06:50:04;22.92;;;10.35;;
21251;SDS011;10784;50.578;17.878;2022-12-29T06:52:38;19.13;;;8.77;;
21251;SDS011;10784;50.578;17.878;2022-12-29T06:55:10;20.15;;;8.43;;
21251;SDS011;10784;50.578;17.878;2022-12-29T06:57:43;4.07;;;3.10;;
21251;SDS011;10784;50.578;17.878;2022-12-29T07:00:16;6.10;;;3.25;;
21251;SDS011;10784;50.578;17.878;2022-12-29T07:02:55;4.97;;;2.25;;
21251;SDS011;10784;50.578;17.878;2022-12-29T07:05:28;4.20;;;2.95;;
21251;SDS011;10784;50.578;17.878;2022-12-29T07:08:04;9.32;;;3.38;;
21251;SDS011;10784;50.578;17.878;2022-12-29T07:10:38;9.68;;;4.05;;
21251;SDS011;10784;50.578;17.878;2022-12-29T07:13:11;8.63;;;2.67;;
21251;SDS011;10784;50.578;17.878;2022-12-29T07:15:43;6.20;;;2.63;;
21251;SDS011;10784;50.578;17.878;2022-12-29T07:18:16;6.28;;;2.30;;
21251;SDS011;10784;50.578;17.878;2022-12-29T07:20:49;8.10;;;3.28;;
21251;SDS011;10784;50.578;17.878;2022-12-29T07:23:22;8.05;;;3.50;;
21251;SDS011;10784;50.578;17.878;2022-12-29T07:25:58;5.00;;;2.33;;
21251;SDS011;10784;50.578;17.878;2022-12-29T07:28:32;8.80;;;3.65;;
21251;SDS011;10784;50.578;17.878;2022-12-29T07:31:12;6.90;;;3.10;;
21251;SDS011;10784;50.578;17.878;2022-12-29T07:33:46;6.50;;;3.63;;
21251;SDS011;10784;50.578;17.878;2022-12-29T07:36:19;6.88;;;3.42;;
21251;SDS011;10784;50.578;17.878;2022-12-29T07:38:52;8.38;;;3.92;;
21251;SDS011;10784;50.578;17.878;2022-12-29T07:41:25;5.90;;;2.75;;
21251;SDS011;10784;50.578;17.878;2022-12-29T07:43:58;7.75;;;2.83;;
21251;SDS011;10784;50.578;17.878;2022-12-29T07:46:41;9.25;;;3.53;;
21251;SDS011;10784;50.578;17.878;2022-12-29T07:49:28;8.38;;;2.58;;
21251;SDS011;10784;50.578;17.878;2022-12-29T07:52:00;11.57;;;3.38;;
21251;SDS011;10784;50.578;17.878;2022-12-29T07:54:33;14.85;;;3.97;;
21251;SDS011;10784;50.578;17.878;2022-12-29T07:57:08;15.80;;;3.45;;
21251;SDS011;10784;50.578;17.878;2022-12-29T07:59:41;8.65;;;3.15;;
21251;SDS011;10784;50.578;17.878;2022-12-29T08:02:14;11.80;;;4.20;;
21251;SDS011;10784;50.578;17.878;2022-12-29T08:04:47;5.72;;;3.42;;
21251;SDS011;10784;50.578;17.878;2022-12-29T08:07:19;12.13;;;4.93;;
21251;SDS011;10784;50.578;17.878;2022-12-29T08:09:52;8.57;;;3.92;;
21251;SDS011;10784;50.578;17.878;2022-12-29T08:12:25;4.70;;;2.72;;
21251;SDS011;10784;50.578;17.878;2022-12-29T08:14:58;9.20;;;3.10;;
21251;SDS011;10784;50.578;17.878;2022-12-29T08:17:30;12.00;;;4.72;;
21251;SDS011;10784;50.578;17.878;2022-12-29T08:20:06;10.43;;;3.17;;
21251;SDS011;10784;50.578;17.878;2022-12-29T08:22:39;8.07;;;3.80;;
21251;SDS011;10784;50.578;17.878;2022-12-29T08:25:12;8.73;;;2.95;;
21251;SDS011;10784;50.578;17.878;2022-12-29T08:27:45;8.10;;;2.80;;
21251;SDS011;10784;50.578;17.878;2022-12-29T08:30:18;6.63;;;3.33;;
21251;SDS011;10784;50.578;17.878;2022-12-29T08:32:50;7.68;;;3.95;;
21251;SDS011;10784;50.578;17.878;2022-12-29T08:35:26;9.07;;;4.57;;
21251;SDS011;10784;50.578;17.878;2022-12-29T08:37:58;20.52;;;5.97;;
21251;SDS011;10784;50.578;17.878;2022-12-29T08:40:31;15.88;;;6.68;;
21251;SDS011;10784;50.578;17.878;2022-12-29T08:43:04;80.05;;;19.00;;
21251;SDS011;10784;50.578;17.878;2022-12-29T08:45:39;41.00;;;13.52;;
21251;SDS011;10784;50.578;17.878;2022-12-29T08:48:12;16.65;;;5.30;;
21251;SDS011;10784;50.578;17.878;2022-12-29T08:50:48;16.83;;;5.60;;
21251;SDS011;10784;50.578;17.878;2022-12-29T08:53:21;7.43;;;3.42;;
21251;SDS011;10784;50.578;17.878;2022-12-29T08:55:55;8.60;;;3.47;;
21251;SDS011;10784;50.578;17.878;2022-12-29T08:58:40;6.43;;;2.67;;
21251;SDS011;10784;50.578;17.878;2022-12-29T09:01:13;10.48;;;3.17;;
21251;SDS011;10784;50.578;17.878;2022-12-29T09:03:46;6.68;;;3.00;;
21251;SDS011;10784;50.578;17.878;2022-12-29T09:06:39;5.43;;;3.13;;
21251;SDS011;10784;50.578;17.878;2022-12-29T09:09:12;9.68;;;3.38;;
21251;SDS011;10784;50.578;17.878;2022-12-29T09:11:45;7.40;;;2.47;;
21251;SDS011;10784;50.578;17.878;2022-12-29T09:14:17;5.40;;;2.95;;
21251;SDS011;10784;50.578;17.878;2022-12-29T09:16:51;10.60;;;3.00;;
21251;SDS011;10784;50.578;17.878;2022-12-29T09:19:42;7.85;;;2.90;;
21251;SDS011;10784;50.578;17.878;2022-12-29T09:22:15;7.28;;;2.47;;
21251;SDS011;10784;50.578;17.878;2022-12-29T09:24:48;6.03;;;3.55;;
21251;SDS011;10784;50.578;17.878;2022-12-29T09:27:21;8.48;;;3.17;;
21251;SDS011;10784;50.578;17.878;2022-12-29T09:29:53;11.07;;;4.45;;
21251;SDS011;10784;50.578;17.878;2022-12-29T09:32:26;12.40;;;4.95;;
21251;SDS011;10784;50.578;17.878;2022-12-29T09:35:04;28.02;;;5.93;;
21251;SDS011;10784;50.578;17.878;2022-12-29T09:37:37;9.50;;;4.88;;
21251;SDS011;10784;50.578;17.878;2022-12-29T09:40:18;26.40;;;6.47;;
21251;SDS011;10784;50.578;17.878;2022-12-29T09:45:49;30.60;;;6.63;;
21251;SDS011;10784;50.578;17.878;2022-12-29T09:48:27;12.13;;;5.13;;
21251;SDS011;10784;50.578;17.878;2022-12-29T09:51:02;16.50;;;5.55;;
21251;SDS011;10784;50.578;17.878;2022-12-29T09:53:36;5.43;;;3.35;;
21251;SDS011;10784;50.578;17.878;2022-12-29T09:56:17;9.32;;;3.45;;
21251;SDS011;10784;50.578;17.878;2022-12-29T09:58:53;8.40;;;3.47;;
21251;SDS011;10784;50.578;17.878;2022-12-29T10:01:36;5.57;;;3.30;;
21251;SDS011;10784;50.578;17.878;2022-12-29T10:04:10;8.45;;;3.60;;
21251;SDS011;10784;50.578;17.878;2022-12-29T10:06:48;6.32;;;3.55;;
21251;SDS011;10784;50.578;17.878;2022-12-29T10:17:36;8.50;;;4.07;;
21251;SDS011;10784;50.578;17.878;2022-12-29T10:20:14;6.90;;;3.30;;
21251;SDS011;10784;50.578;17.878;2022-12-29T10:25:24;6.78;;;3.13;;
21251;SDS011;10784;50.578;17.878;2022-12-29T10:28:05;6.28;;;3.42;;
21251;SDS011;10784;50.578;17.878;2022-12-29T10:30:38;4.65;;;2.83;;
21251;SDS011;10784;50.578;17.878;2022-12-29T10:33:14;4.05;;;2.58;;
21251;SDS011;10784;50.578;17.878;2022-12-29T10:35:49;6.07;;;4.03;;
21251;SDS011;10784;50.578;17.878;2022-12-29T10:38:25;15.70;;;4.68;;
21251;SDS011;10784;50.578;17.878;2022-12-29T10:43:54;13.40;;;4.80;;
21251;SDS011;10784;50.578;17.878;2022-12-29T10:46:29;9.90;;;3.72;;
21251;SDS011;10784;50.578;17.878;2022-12-29T10:49:04;9.82;;;7.88;;
21251;SDS011;10784;50.578;17.878;2022-12-29T10:51:38;10.50;;;4.70;;
21251;SDS011;10784;50.578;17.878;2022-12-29T10:57:01;7.40;;;3.47;;
21251;SDS011;10784;50.578;17.878;2022-12-29T10:59:36;9.27;;;3.38;;
21251;SDS011;10784;50.578;17.878;2022-12-29T11:07:23;9.10;;;4.22;;
21251;SDS011;10784;50.578;17.878;2022-12-29T11:10:19;19.67;;;5.68;;
21251;SDS011;10784;50.578;17.878;2022-12-29T11:13:00;11.65;;;5.03;;
21251;SDS011;10784;50.578;17.878;2022-12-29T11:15:38;14.20;;;4.88;;
21251;SDS011;10784;50.578;17.878;2022-12-29T11:18:22;10.27;;;3.63;;
21251;SDS011;10784;50.578;17.878;2022-12-29T11:20:56;14.25;;;4.85;;
21251;SDS011;10784;50.578;17.878;2022-12-29T11:28:44;7.50;;;2.67;;
21251;SDS011;10784;50.578;17.878;2022-12-29T11:31:17;7.90;;;4.18;;
21251;SDS011;10784;50.578;17.878;2022-12-29T11:33:51;6.55;;;3.40;;
21251;SDS011;10784;50.578;17.878;2022-12-29T11:36:23;6.20;;;3.10;;
21251;SDS011;10784;50.578;17.878;2022-12-29T11:38:57;6.78;;;3.30;;
21251;SDS011;10784;50.578;17.878;2022-12-29T11:41:31;7.25;;;3.38;;
21251;SDS011;10784;50.578;17.878;2022-12-29T11:44:05;9.18;;;3.67;;
21251;SDS011;10784;50.578;17.878;2022-12-29T11:46:38;6.50;;;3.47;;
21251;SDS011;10784;50.578;17.878;2022-12-29T11:49:12;5.65;;;2.92;;
21251;SDS011;10784;50.578;17.878;2022-12-29T11:51:46;4.85;;;3.13;;
21251;SDS011;10784;50.578;17.878;2022-12-29T11:54:27;9.27;;;4.07;;
21251;SDS011;10784;50.578;17.878;2022-12-29T11:57:12;7.40;;;4.00;;
21251;SDS011;10784;50.578;17.878;2022-12-29T11:59:54;7.05;;;3.03;;
21251;SDS011;10784;50.578;17.878;2022-12-29T12:08:00;14.25;;;5.53;;
21251;SDS011;10784;50.578;17.878;2022-12-29T12:10:44;7.45;;;3.22;;
21251;SDS011;10784;50.578;17.878;2022-12-29T12:15:54;16.80;;;6.40;;
21251;SDS011;10784;50.578;17.878;2022-12-29T12:23:51;27.42;;;7.97;;
21251;SDS011;10784;50.578;17.878;2022-12-29T12:26:34;9.40;;;5.22;;
21251;SDS011;10784;50.578;17.878;2022-12-29T12:34:23;23.50;;;8.98;;
21251;SDS011;10784;50.578;17.878;2022-12-29T12:37:04;33.72;;;8.07;;
21251;SDS011;10784;50.578;17.878;2022-12-29T12:42:57;17.17;;;5.25;;
21251;SDS011;10784;50.578;17.878;2022-12-29T12:50:27;16.50;;;5.97;;
21251;SDS011;10784;50.578;17.878;2022-12-29T13:01:10;9.75;;;5.20;;
21251;SDS011;10784;50.578;17.878;2022-12-29T13:14:28;18.00;;;5.93;;
21251;SDS011;10784;50.578;17.878;2022-12-29T13:19:42;19.08;;;5.93;;
21251;SDS011;10784;50.578;17.878;2022-12-29T13:25:02;20.63;;;5.78;;
21251;SDS011;10784;50.578;17.878;2022-12-29T13:30:20;15.85;;;6.00;;
21251;SDS011;10784;50.578;17.878;2022-12-29T13:33:06;11.27;;;5.53;;
21251;SDS011;10784;50.578;17.878;2022-12-29T13:35:55;16.70;;;5.20;;
21251;SDS011;10784;50.578;17.878;2022-12-29T13:38:44;23.75;;;5.28;;
21251;SDS011;10784;50.578;17.878;2022-12-29T13:44:14;18.50;;;7.88;;
21251;SDS011;10784;50.578;17.878;2022-12-29T13:46:48;20.08;;;7.28;;
21251;SDS011;10784;50.578;17.878;2022-12-29T13:49:22;10.73;;;5.30;;
21251;SDS011;10784;50.578;17.878;2022-12-29T13:51:57;26.10;;;7.95;;
21251;SDS011;10784;50.578;17.878;2022-12-29T13:54:39;14.55;;;5.57;;
21251;SDS011;10784;50.578;17.878;2022-12-29T13:57:20;19.40;;;6.38;;
21251;SDS011;10784;50.578;17.878;2022-12-29T14:00:03;26.25;;;8.65;;
21251;SDS011;10784;50.578;17.878;2022-12-29T14:07:59;23.48;;;8.77;;
21251;SDS011;10784;50.578;17.878;2022-12-29T14:10:33;14.45;;;6.25;;
21251;SDS011;10784;50.578;17.878;2022-12-29T14:15:58;16.35;;;7.63;;
21251;SDS011;10784;50.578;17.878;2022-12-29T14:23:38;10.93;;;4.93;;
21251;SDS011;10784;50.578;17.878;2022-12-29T14:26:13;10.15;;;4.28;;
21251;SDS011;10784;50.578;17.878;2022-12-29T14:28:48;11.30;;;4.95;;
21251;SDS011;10784;50.578;17.878;2022-12-29T14:36:39;20.42;;;8.57;;
21251;SDS011;10784;50.578;17.878;2022-12-29T14:39:32;17.13;;;6.75;;
21251;SDS011;10784;50.578;17.878;2022-12-29T14:42:10;13.35;;;5.97;;
21251;SDS011;10784;50.578;17.878;2022-12-29T14:44:49;19.48;;;6.70;;
21251;SDS011;10784;50.578;17.878;2022-12-29T14:47:32;13.70;;;6.25;;
21251;SDS011;10784;50.578;17.878;2022-12-29T14:50:52;16.20;;;6.47;;
21251;SDS011;10784;50.578;17.878;2022-12-29T14:53:03;15.10;;;7.68;;
21251;SDS011;10784;50.578;17.878;2022-12-29T14:55:44;14.57;;;6.10;;
21251;SDS011;10784;50.578;17.878;2022-12-29T14:58:29;14.85;;;5.80;;
21251;SDS011;10784;50.578;17.878;2022-12-29T15:01:03;9.60;;;4.68;;
21251;SDS011;10784;50.578;17.878;2022-12-29T15:03:51;13.95;;;5.65;;
21251;SDS011;10784;50.578;17.878;2022-12-29T15:06:27;18.27;;;7.00;;
21251;SDS011;10784;50.578;17.878;2022-12-29T15:09:04;12.85;;;7.05;;
21251;SDS011;10784;50.578;17.878;2022-12-29T15:17:20;8.73;;;4.68;;
21251;SDS011;10784;50.578;17.878;2022-12-29T15:19:55;9.40;;;4.88;;
21251;SDS011;10784;50.578;17.878;2022-12-29T15:22:28;11.38;;;4.53;;
21251;SDS011;10784;50.578;17.878;2022-12-29T15:25:02;14.75;;;4.55;;
21251;SDS011;10784;50.578;17.878;2022-12-29T15:27:35;7.72;;;4.03;;
21251;SDS011;10784;50.578;17.878;2022-12-29T15:30:12;5.22;;;3.05;;
21251;SDS011;10784;50.578;17.878;2022-12-29T15:32:49;7.80;;;4.18;;
21251;SDS011;10784;50.578;17.878;2022-12-29T15:35:24;5.68;;;3.80;;
21251;SDS011;10784;50.578;17.878;2022-12-29T15:37:57;9.77;;;4.25;;
21251;SDS011;10784;50.578;17.878;2022-12-29T15:40:31;11.98;;;4.68;;
21251;SDS011;10784;50.578;17.878;2022-12-29T15:45:40;15.77;;;6.40;;
21251;SDS011;10784;50.578;17.878;2022-12-29T15:48:14;24.42;;;8.82;;
21251;SDS011;10784;50.578;17.878;2022-12-29T15:50:49;17.90;;;7.63;;
21251;SDS011;10784;50.578;17.878;2022-12-29T15:53:40;12.05;;;6.35;;
21251;SDS011;10784;50.578;17.878;2022-12-29T15:56:13;14.60;;;6.07;;
21251;SDS011;10784;50.578;17.878;2022-12-29T15:58:47;20.27;;;7.35;;
21251;SDS011;10784;50.578;17.878;2022-12-29T16:01:55;16.48;;;5.95;;
21251;SDS011;10784;50.578;17.878;2022-12-29T16:04:20;14.77;;;6.28;;
21251;SDS011;10784;50.578;17.878;2022-12-29T16:06:54;15.07;;;6.38;;
21251;SDS011;10784;50.578;17.878;2022-12-29T16:09:35;15.40;;;6.43;;
21251;SDS011;10784;50.578;17.878;2022-12-29T16:12:19;11.30;;;4.93;;
21251;SDS011;10784;50.578;17.878;2022-12-29T16:17:27;7.82;;;3.58;;
21251;SDS011;10784;50.578;17.878;2022-12-29T16:20:04;11.38;;;4.65;;
21251;SDS011;10784;50.578;17.878;2022-12-29T16:22:54;11.50;;;3.85;;
21251;SDS011;10784;50.578;17.878;2022-12-29T16:25:29;8.02;;;3.45;;
21251;SDS011;10784;50.578;17.878;2022-12-29T16:28:13;8.98;;;3.85;;
21251;SDS011;10784;50.578;17.878;2022-12-29T16:30:47;9.95;;;5.28;;
21251;SDS011;10784;50.578;17.878;2022-12-29T16:36:01;35.63;;;11.15;;
21251;SDS011;10784;50.578;17.878;2022-12-29T16:38:35;26.90;;;8.27;;
21251;SDS011;10784;50.578;17.878;2022-12-29T16:41:08;24.95;;;9.20;;
21251;SDS011;10784;50.578;17.878;2022-12-29T16:49:31;18.25;;;7.25;;
21251;SDS011;10784;50.578;17.878;2022-12-29T16:52:19;31.02;;;10.60;;
21251;SDS011;10784;50.578;17.878;2022-12-29T16:54:53;27.50;;;10.68;;
21251;SDS011;10784;50.578;17.878;2022-12-29T16:57:30;17.48;;;7.03;;
21251;SDS011;10784;50.578;17.878;2022-12-29T17:00:04;12.70;;;5.07;;
21251;SDS011;10784;50.578;17.878;2022-12-29T17:02:37;13.88;;;5.38;;
21251;SDS011;10784;50.578;17.878;2022-12-29T17:05:17;18.77;;;6.20;;
21251;SDS011;10784;50.578;17.878;2022-12-29T17:07:51;13.68;;;6.55;;
21251;SDS011;10784;50.578;17.878;2022-12-29T17:10:25;10.27;;;5.88;;
21251;SDS011;10784;50.578;17.878;2022-12-29T17:13:18;11.57;;;5.80;;
21251;SDS011;10784;50.578;17.878;2022-12-29T17:15:50;27.30;;;8.13;;
21251;SDS011;10784;50.578;17.878;2022-12-29T17:18:23;18.60;;;6.43;;
21251;SDS011;10784;50.578;17.878;2022-12-29T17:20:56;14.68;;;7.05;;
21251;SDS011;10784;50.578;17.878;2022-12-29T17:23:29;16.98;;;6.05;;
21251;SDS011;10784;50.578;17.878;2022-12-29T17:26:03;9.63;;;4.63;;
21251;SDS011;10784;50.578;17.878;2022-12-29T17:28:36;17.17;;;6.25;;
21251;SDS011;10784;50.578;17.878;2022-12-29T17:31:09;15.20;;;7.65;;
21251;SDS011;10784;50.578;17.878;2022-12-29T17:33:42;54.83;;;16.63;;
21251;SDS011;10784;50.578;17.878;2022-12-29T17:36:14;31.02;;;9.95;;
21251;SDS011;10784;50.578;17.878;2022-12-29T17:38:47;17.67;;;6.35;;
21251;SDS011;10784;50.578;17.878;2022-12-29T17:41:20;23.88;;;8.20;;
21251;SDS011;10784;50.578;17.878;2022-12-29T17:43:53;18.35;;;6.32;;
21251;SDS011;10784;50.578;17.878;2022-12-29T17:46:26;18.98;;;6.18;;
21251;SDS011;10784;50.578;17.878;2022-12-29T17:48:59;17.20;;;6.82;;
21251;SDS011;10784;50.578;17.878;2022-12-29T17:51:32;13.43;;;5.60;;
21251;SDS011;10784;50.578;17.878;2022-12-29T17:54:05;16.38;;;6.95;;